Time;durP1;ratioP1;P1;durP2;ratioP2;P2;SDS_P1;SDS_P2;PMS_P1;PMS_P2;Temp;Humidity;BMP_temperature;BMP_pressure;BME280_temperature;BME280_humidity;BME280_pressure;Samples;Min_cycle;Max_cycle;Signal;HPM_P1;HPM_P2
2021/01/08 00:00:26;;;;;;;2.00;1.30;;;;;;;19.56;40.68;99657.31;5029594;28;20033;-73
2021/01/08 00:02:52;;;;;;;1.55;1.13;;;;;;;19.55;40.54;99656.47;5029613;28;20045;-75
2021/01/08 00:05:17;;;;;;;1.77;1.30;;;;;;;19.56;40.73;99654.69;5029209;28;20037;-73
2021/01/08 00:07:43;;;;;;;1.35;1.10;;;;;;;19.56;40.61;99657.31;5029413;28;20041;-75
2021/01/08 00:10:09;;;;;;;1.77;1.20;;;;;;;19.56;40.64;99655.56;5048625;28;20448;-73
2021/01/08 00:12:36;;;;;;;2.08;1.02;;;;;;;19.56;40.55;99652.06;5049405;28;21184;-72
2021/01/08 00:15:02;;;;;;;1.25;1.13;;;;;;;19.55;40.49;99645.06;5048021;28;20085;-74
2021/01/08 00:17:31;;;;;;;1.58;1.10;;;;;;;19.54;40.51;99646.00;5049231;28;20044;-73
2021/01/08 00:19:57;;;;;;;2.10;1.48;;;;;;;19.53;40.84;99646.91;5049331;28;20040;-74
2021/01/08 00:22:23;;;;;;;1.67;1.27;;;;;;;19.53;40.81;99646.91;5048936;28;20393;-75
2021/01/08 00:24:49;;;;;;;2.03;1.10;;;;;;;19.53;40.64;99639.03;5049040;28;20044;-73
2021/01/08 00:27:15;;;;;;;1.58;1.00;;;;;;;19.53;40.77;99647.75;5044377;28;20072;-75
2021/01/08 00:29:41;;;;;;;2.38;1.30;;;;;;;19.54;40.67;99644.22;5047945;28;20080;-74
2021/01/08 00:32:08;;;;;;;1.73;1.08;;;;;;;19.53;40.65;99645.13;5045075;28;20041;-73
2021/01/08 00:34:34;;;;;;;1.88;1.23;;;;;;;19.54;40.55;99644.22;5029097;28;20056;-73
2021/01/08 00:36:59;;;;;;;2.35;1.50;;;;;;;19.55;40.37;99653.84;5029069;28;20034;-73
2021/01/08 00:39:24;;;;;;;2.05;1.17;;;;;;;19.54;40.51;99644.22;5029021;28;20059;-75
2021/01/08 00:41:50;;;;;;;2.33;1.40;;;;;;;19.55;40.33;99643.31;5046519;28;20032;-74
2021/01/08 00:44:17;;;;;;;2.28;1.48;;;;;;;19.55;40.36;99642.44;5047242;28;20063;-74
2021/01/08 00:46:45;;;;;;;3.03;1.13;;;;;;;19.52;40.50;99646.03;5033382;28;20040;-74
2021/01/08 00:49:11;;;;;;;1.27;0.98;;;;;;;19.54;40.49;99643.38;5032029;28;20084;-73
2021/01/08 00:51:37;;;;;;;2.30;1.23;;;;;;;19.53;40.74;99652.16;5031347;28;20451;-75
2021/01/08 00:54:04;;;;;;;2.47;1.30;;;;;;;19.53;40.50;99646.91;5035151;28;20040;-73
2021/01/08 00:56:30;;;;;;;1.92;1.02;;;;;;;19.51;40.37;99641.69;5052691;28;20041;-74
2021/01/08 00:58:56;;;;;;;1.85;1.27;;;;;;;19.54;40.72;99638.13;5051670;28;20036;-74
2021/01/08 01:01:21;;;;;;;2.15;1.20;;;;;;;19.52;40.44;99638.16;5052394;28;20078;-75
2021/01/08 01:03:48;;;;;;;2.50;1.58;;;;;;;19.51;40.55;99633.78;5050736;28;20044;-73
2021/01/08 01:06:26;;;;;;;2.38;1.40;;;;;;;19.52;40.55;99637.31;5052270;28;20057;-76
2021/01/08 01:08:52;;;;;;;2.30;1.55;;;;;;;19.53;40.48;99639.03;5043940;28;20048;-73
2021/01/08 01:11:19;;;;;;;2.40;1.55;;;;;;;19.55;40.38;99631.94;5032337;28;20037;-75
2021/01/08 01:13:45;;;;;;;1.95;1.15;;;;;;;19.53;40.42;99632.00;5032542;28;20046;-74
2021/01/08 01:16:13;;;;;;;1.63;1.00;;;;;;;19.54;40.45;99646.00;5032461;28;20112;-75
2021/01/08 01:18:38;;;;;;;2.28;1.30;;;;;;;19.53;40.43;99644.28;5034074;28;20038;-76
2021/01/08 01:21:03;;;;;;;2.63;1.60;;;;;;;19.53;40.35;99644.28;5051595;28;20123;-72
2021/01/08 01:23:29;;;;;;;1.30;1.02;;;;;;;19.51;40.27;99639.03;5051800;28;20584;-73
2021/01/08 01:25:54;;;;;;;2.63;1.27;;;;;;;19.52;40.20;99642.56;5034102;28;20044;-76
2021/01/08 01:28:20;;;;;;;2.17;1.35;;;;;;;19.51;40.34;99651.34;5032281;28;20041;-75
2021/01/08 01:30:45;;;;;;;2.30;1.35;;;;;;;19.52;40.25;99650.44;5031893;28;20033;-74
2021/01/08 01:33:10;;;;;;;2.17;1.23;;;;;;;19.52;40.37;99650.44;5031971;28;20034;-74
2021/01/08 01:35:36;;;;;;;2.40;1.50;;;;;;;19.52;40.41;99653.06;5030514;28;20603;-77
2021/01/08 01:38:02;;;;;;;2.33;1.35;;;;;;;19.52;40.20;99651.28;5032023;28;20111;-73
2021/01/08 01:40:27;;;;;;;1.75;1.30;;;;;;;19.51;40.38;99649.56;5036757;28;20037;-73
2021/01/08 01:42:53;;;;;;;2.13;1.25;;;;;;;19.51;40.20;99659.22;5051722;28;20490;-73
2021/01/08 01:45:18;;;;;;;2.83;1.17;;;;;;;19.52;40.31;99651.28;5051624;28;20413;-74
2021/01/08 01:47:44;;;;;;;2.97;1.48;;;;;;;19.51;40.49;99654.81;5050154;28;20033;-72
2021/01/08 01:50:10;;;;;;;2.85;1.50;;;;;;;19.51;40.29;99657.44;5051364;28;20120;-72
2021/01/08 01:52:36;;;;;;;1.92;1.23;;;;;;;19.52;40.31;99653.91;5032739;28;20040;-74
2021/01/08 01:55:04;;;;;;;2.70;1.27;;;;;;;19.51;40.24;99654.81;5031659;28;20034;-73
2021/01/08 01:57:29;;;;;;;2.10;1.50;;;;;;;19.55;40.16;99661.72;5031233;28;20045;-72
2021/01/08 01:59:55;;;;;;;3.58;1.58;;;;;;;19.54;40.23;99659.16;5029757;28;20029;-73
2021/01/08 02:02:31;;;;;;;2.83;1.40;;;;;;;19.52;40.03;99666.22;5032145;28;20128;-74
2021/01/08 02:04:57;;;;;;;2.05;1.55;;;;;;;19.52;40.26;99663.56;5031013;28;20040;-74
2021/01/08 02:07:25;;;;;;;1.70;1.13;;;;;;;19.50;40.29;99663.59;5031328;28;20440;-74
2021/01/08 02:10:03;;;;;;;2.60;1.58;;;;;;;19.47;40.26;99669.81;5047616;28;20048;-73
2021/01/08 02:12:30;;;;;;;2.75;1.63;;;;;;;19.48;40.28;99663.66;5051013;28;20082;-74
2021/01/08 02:14:57;;;;;;;2.33;1.25;;;;;;;19.48;40.13;99660.16;5051322;28;20567;-73
2021/01/08 02:17:23;;;;;;;2.35;1.30;;;;;;;19.48;40.15;99665.41;5049763;28;20045;-73
2021/01/08 02:19:51;;;;;;;4.47;1.30;;;;;;;19.48;40.04;99668.03;5050854;28;20116;-73
2021/01/08 02:23:10;;;;;;;2.97;1.60;;;;;;;19.47;40.33;99663.69;5031823;28;20421;-75
2021/01/08 02:25:36;;;;;;;2.80;1.40;;;;;;;19.46;40.41;99664.59;5013381;28;20552;-74
2021/01/08 02:28:05;;;;;;;1.63;1.20;;;;;;;19.47;40.14;99667.19;5031341;28;20029;-73
2021/01/08 02:30:32;;;;;;;3.53;1.58;;;;;;;19.47;40.06;99669.81;5030986;28;20036;-73
2021/01/08 02:32:58;;;;;;;1.83;1.17;;;;;;;19.46;40.06;99668.09;5030538;28;20410;-73
2021/01/08 02:35:24;;;;;;;3.40;1.60;;;;;;;19.50;40.19;99668.00;5030800;28;20134;-73
2021/01/08 02:37:50;;;;;;;3.80;1.77;;;;;;;19.48;40.20;99663.66;5030759;28;20435;-74
2021/01/08 02:40:16;;;;;;;3.72;2.10;;;;;;;19.48;39.97;99671.53;5035053;28;20033;-74
2021/01/08 02:42:43;;;;;;;2.45;1.30;;;;;;;19.50;40.12;99671.47;5050801;28;20437;-74
2021/01/08 02:45:10;;;;;;;2.60;1.48;;;;;;;19.50;40.17;99670.63;5065624;28;20037;-74
2021/01/08 02:47:37;;;;;;;2.90;1.58;;;;;;;19.48;40.13;99662.78;5050206;28;20036;-74
2021/01/08 02:50:04;;;;;;;2.60;1.40;;;;;;;19.48;39.99;99673.28;5050438;28;20516;-79
2021/01/08 02:52:31;;;;;;;1.65;1.25;;;;;;;19.48;40.09;99671.53;5050136;28;20036;-75
2021/01/08 02:54:57;;;;;;;2.45;1.50;;;;;;;19.48;40.29;99670.66;5048610;28;20045;-73
2021/01/08 02:57:26;;;;;;;1.67;1.17;;;;;;;19.47;40.12;99668.94;5050419;28;20033;-75
2021/01/08 02:59:54;;;;;;;2.00;1.30;;;;;;;19.48;40.08;99666.28;5050316;28;20029;-75
2021/01/08 03:02:20;;;;;;;2.03;1.40;;;;;;;19.47;40.04;99669.81;5050160;28;20413;-74
2021/01/08 03:04:45;;;;;;;2.28;1.20;;;;;;;19.48;40.26;99679.41;5049929;28;20112;-73
2021/01/08 03:07:11;;;;;;;2.72;1.48;;;;;;;19.50;40.05;99681.16;5050174;28;20520;-75
2021/01/08 03:09:37;;;;;;;3.65;1.40;;;;;;;19.48;40.24;99676.78;5035625;28;20439;-73
2021/01/08 03:12:02;;;;;;;1.92;1.27;;;;;;;19.47;40.09;99672.44;5029396;28;20034;-73
2021/01/08 03:14:28;;;;;;;1.48;1.10;;;;;;;19.47;39.95;99671.56;5028992;28;20445;-73
2021/01/08 03:16:53;;;;;;;2.80;1.63;;;;;;;19.48;39.98;99671.53;5031006;28;20033;-74
2021/01/08 03:19:21;;;;;;;3.10;1.55;;;;;;;19.45;39.99;99668.97;5037183;28;20037;-74
2021/01/08 03:21:46;;;;;;;2.47;1.17;;;;;;;19.46;40.08;99668.09;5050038;28;20390;-75
2021/01/08 03:24:12;;;;;;;2.90;1.10;;;;;;;19.45;39.84;99668.97;5049609;28;20515;-75
2021/01/08 03:26:37;;;;;;;2.65;1.75;;;;;;;19.45;40.13;99668.97;5049930;28;20060;-74
2021/01/08 03:29:03;;;;;;;2.95;1.77;;;;;;;19.46;39.96;99661.97;5050069;28;20041;-75
2021/01/08 03:31:29;;;;;;;3.05;1.52;;;;;;;19.44;39.90;99662.00;5049322;28;20037;-73
2021/01/08 03:33:54;;;;;;;2.80;1.35;;;;;;;19.44;39.94;99663.78;5049719;28;20174;-73
2021/01/08 03:36:20;;;;;;;2.13;1.40;;;;;;;19.44;40.02;99666.41;5049806;28;20037;-75
2021/01/08 03:38:45;;;;;;;2.53;1.67;;;;;;;19.45;39.88;99666.34;5049998;28;20136;-74
2021/01/08 03:41:11;;;;;;;2.72;1.30;;;;;;;19.46;39.92;99664.59;5044965;28;20133;-74
2021/01/08 03:43:36;;;;;;;3.38;1.42;;;;;;;19.44;39.91;99672.50;5029886;28;20091;-75
2021/01/08 03:46:02;;;;;;;2.03;1.50;;;;;;;19.43;40.09;99668.16;5039608;28;20512;-75
2021/01/08 03:48:27;;;;;;;2.50;1.48;;;;;;;19.45;39.75;99666.34;5047964;28;20051;-75
2021/01/08 03:50:52;;;;;;;2.42;1.27;;;;;;;19.44;39.96;99661.16;5049766;28;20040;-74
2021/01/08 03:53:18;;;;;;;3.00;1.50;;;;;;;19.44;39.96;99671.66;5048016;28;20037;-75
2021/01/08 03:55:43;;;;;;;2.97;1.75;;;;;;;19.43;39.84;99668.16;5049564;28;20045;-73
2021/01/08 03:58:09;;;;;;;1.85;1.30;;;;;;;19.44;39.96;99669.03;5048324;28;20033;-73
2021/01/08 04:00:34;;;;;;;2.30;1.33;;;;;;;19.44;40.02;99666.41;5047917;28;20072;-75
2021/01/08 04:02:59;;;;;;;1.92;1.63;;;;;;;19.44;39.73;99669.88;5049403;28;20048;-75
2021/01/08 04:05:25;;;;;;;2.05;1.38;;;;;;;19.45;39.73;99674.25;5048229;28;20089;-77
2021/01/08 04:07:52;;;;;;;4.20;1.50;;;;;;;19.44;39.74;99669.88;5048909;28;20029;-73
2021/01/08 04:10:18;;;;;;;1.60;1.00;;;;;;;19.45;39.90;99671.63;5028038;28;20494;-74
2021/01/08 04:12:43;;;;;;;2.42;1.52;;;;;;;19.43;39.62;99676.03;5030705;28;20029;-74
2021/01/08 04:15:09;;;;;;;2.75;1.65;;;;;;;19.45;39.76;99674.25;5027839;28;20559;-74
2021/01/08 04:17:34;;;;;;;1.73;1.30;;;;;;;19.46;40.00;99677.75;5037217;28;20040;-73
2021/01/08 04:19:59;;;;;;;2.92;1.70;;;;;;;19.45;39.51;99676.88;5049147;28;20041;-73
2021/01/08 04:22:25;;;;;;;1.85;1.30;;;;;;;19.46;39.85;99673.34;5049422;28;20417;-72
2021/01/08 04:24:50;;;;;;;1.92;1.25;;;;;;;19.45;39.70;99683.91;5051544;28;20620;-76
2021/01/08 04:27:16;;;;;;;1.95;1.25;;;;;;;19.44;39.88;99667.25;5051789;28;20090;-73
2021/01/08 04:29:41;;;;;;;1.95;1.25;;;;;;;19.43;39.58;99670.78;5051781;28;20102;-75
2021/01/08 04:32:07;;;;;;;3.55;1.50;;;;;;;19.45;39.88;99670.75;5053207;28;20079;-73
2021/01/08 04:34:32;;;;;;;2.58;1.48;;;;;;;19.45;39.66;99676.03;5053187;28;20083;-73
2021/01/08 04:36:57;;;;;;;2.08;1.40;;;;;;;19.45;39.61;99660.25;5053005;28;20072;-74
2021/01/08 04:39:23;;;;;;;2.08;1.23;;;;;;;19.47;39.63;99671.56;5053064;28;20098;-75
2021/01/08 04:41:49;;;;;;;3.10;1.60;;;;;;;19.45;39.86;99676.88;5035909;28;20041;-74
2021/01/08 04:44:15;;;;;;;1.98;1.38;;;;;;;19.45;39.79;99666.34;5032714;28;20064;-74
2021/01/08 04:46:41;;;;;;;3.83;1.60;;;;;;;19.44;39.74;99669.88;5047081;28;20067;-73
2021/01/08 04:49:07;;;;;;;2.33;1.52;;;;;;;19.44;39.96;99680.41;5052680;28;20477;-73
2021/01/08 04:51:37;;;;;;;3.17;1.70;;;;;;;19.43;39.71;99665.53;5052824;28;20051;-73
2021/01/08 04:54:04;;;;;;;2.00;1.40;;;;;;;19.44;39.83;99669.88;5052527;28;20029;-74
2021/01/08 04:56:37;;;;;;;2.63;1.30;;;;;;;19.46;39.61;99664.59;5052368;28;20059;-74
2021/01/08 04:59:03;;;;;;;2.28;1.40;;;;;;;19.50;39.35;99673.25;5052495;28;20481;-74
2021/01/08 05:01:29;;;;;;;1.98;1.17;;;;;;;19.49;39.66;99667.13;5052713;28;20098;-73
2021/01/08 05:03:54;;;;;;;2.53;1.67;;;;;;;19.48;39.79;99661.03;5052197;28;20025;-74
2021/01/08 05:06:20;;;;;;;3.42;1.52;;;;;;;19.48;39.59;99666.28;5052725;28;20096;-73
2021/01/08 05:08:45;;;;;;;2.35;1.70;;;;;;;19.48;39.53;99666.28;5047555;28;20041;-76
2021/01/08 05:11:30;;;;;;;2.78;1.38;;;;;;;19.45;39.60;99666.34;5032356;28;20486;-73
2021/01/08 05:13:56;;;;;;;2.63;1.73;;;;;;;19.45;39.40;99663.72;5032456;28;20064;-75
2021/01/08 05:16:24;;;;;;;2.85;1.50;;;;;;;19.48;39.41;99666.28;5032050;28;20049;-75
2021/01/08 05:18:53;;;;;;;1.83;1.33;;;;;;;19.44;39.41;99669.03;5035406;28;20033;-75
2021/01/08 05:21:19;;;;;;;2.38;1.50;;;;;;;19.42;39.64;99668.22;5052384;28;20041;-74
2021/01/08 05:23:46;;;;;;;3.00;1.35;;;;;;;19.41;39.59;99669.97;5051691;28;20056;-74
2021/01/08 05:26:15;;;;;;;2.95;1.50;;;;;;;19.41;39.78;99677.84;5051853;28;20040;-74
2021/01/08 05:29:02;;;;;;;2.78;1.40;;;;;;;19.41;39.71;99677.00;5052075;28;20032;-75
2021/01/08 05:31:32;;;;;;;2.33;1.27;;;;;;;19.41;39.50;99677.84;5051886;28;20049;-75
2021/01/08 05:33:58;;;;;;;2.63;1.63;;;;;;;19.42;39.57;99676.09;5051115;28;20464;-74
2021/01/08 05:36:25;;;;;;;3.45;1.90;;;;;;;19.43;39.59;99677.81;5051747;28;20033;-75
2021/01/08 05:38:59;;;;;;;1.55;1.20;;;;;;;19.43;39.56;99677.81;5050773;28;20044;-74
2021/01/08 05:41:30;;;;;;;3.03;1.75;;;;;;;19.44;39.22;99675.16;5037863;28;20398;-73
2021/01/08 05:43:57;;;;;;;3.42;1.38;;;;;;;19.43;39.32;99670.78;5031457;28;20124;-74
2021/01/08 05:46:32;;;;;;;2.63;1.52;;;;;;;19.43;39.57;99678.66;5044682;28;20029;-73
2021/01/08 05:49:00;;;;;;;2.35;1.48;;;;;;;19.45;39.50;99678.66;5051755;28;20116;-73
2021/01/08 05:51:29;;;;;;;3.83;1.80;;;;;;;19.44;39.56;99675.16;5051682;28;20033;-73
2021/01/08 05:53:59;;;;;;;3.65;1.80;;;;;;;19.45;39.51;99686.53;5051313;28;20144;-74
2021/01/08 05:56:24;;;;;;;3.28;1.95;;;;;;;19.44;39.53;99674.28;5051075;28;20553;-73
2021/01/08 05:58:50;;;;;;;3.50;1.40;;;;;;;19.43;39.35;99683.94;5050368;28;20139;-76
2021/01/08 06:01:19;;;;;;;1.88;1.20;;;;;;;19.42;39.58;99679.56;5051404;28;20498;-74
2021/01/08 06:03:45;;;;;;;2.85;1.65;;;;;;;19.42;39.49;99682.19;5051520;28;20048;-75
2021/01/08 06:06:12;;;;;;;6.30;1.40;;;;;;;19.43;39.37;99685.72;5051577;28;20532;-74
2021/01/08 06:08:48;;;;;;;2.53;1.52;;;;;;;19.42;39.61;99679.56;5044957;28;20045;-75
2021/01/08 06:11:31;;;;;;;2.70;1.63;;;;;;;19.43;39.56;99680.44;5031024;28;20037;-74
2021/01/08 06:14:01;;;;;;;3.10;1.77;;;;;;;19.42;39.48;99681.34;5034963;28;20033;-74
2021/01/08 06:16:35;;;;;;;2.10;1.50;;;;;;;19.44;39.38;99677.78;5031222;28;20690;-74
2021/01/08 06:19:03;;;;;;;2.95;1.70;;;;;;;19.47;39.32;99688.22;5035905;28;20040;-74
2021/01/08 06:21:35;;;;;;;3.30;1.77;;;;;;;19.48;39.22;99686.44;5046723;28;20049;-74
2021/01/08 06:24:01;;;;;;;2.78;1.60;;;;;;;19.48;39.16;99687.31;5050554;28;20167;-74
2021/01/08 06:26:30;;;;;;;3.80;1.98;;;;;;;19.45;39.40;99684.75;5032699;28;20124;-74
2021/01/08 06:29:00;;;;;;;10.68;2.50;;;;;;;19.45;39.41;99686.53;5027341;28;20395;-73
2021/01/08 06:31:35;;;;;;;7.45;2.13;;;;;;;19.51;39.52;99685.50;5028653;28;20080;-76
2021/01/08 06:34:02;;;;;;;5.75;2.47;;;;;;;19.56;39.63;99689.72;5039063;28;20040;-77
2021/01/08 06:36:32;;;;;;;3.15;2.08;;;;;;;19.60;39.32;99694.00;5050359;28;20041;-74
2021/01/08 06:39:09;;;;;;;11.60;3.20;;;;;;;19.61;39.50;99697.47;5049432;28;20036;-75
2021/01/08 06:41:34;;;;;;;4.55;2.10;;;;;;;19.59;39.42;99705.41;5048461;28;20131;-77
2021/01/08 06:44:02;;;;;;;11.70;2.55;;;;;;;19.60;39.27;99706.28;5048971;28;20115;-73
2021/01/08 06:46:38;;;;;;;10.60;2.47;;;;;;;19.59;39.29;99707.16;5049903;28;20033;-78
2021/01/08 06:49:11;;;;;;;3.40;2.08;;;;;;;19.57;39.43;99707.22;5048000;28;20457;-76
2021/01/08 06:51:38;;;;;;;7.70;2.25;;;;;;;19.60;39.49;99714.16;5048538;28;20029;-81
2021/01/08 06:54:04;;;;;;;6.28;2.35;;;;;;;19.59;39.48;99721.19;5049278;28;20025;-78
2021/01/08 06:56:36;;;;;;;5.30;2.20;;;;;;;19.60;39.56;99719.41;5050009;28;20029;-76
2021/01/08 06:59:04;;;;;;;6.28;2.03;;;;;;;19.60;39.56;99724.66;5045118;28;20061;-78
2021/01/08 07:01:53;;;;;;;4.28;2.40;;;;;;;19.59;39.60;99721.19;5049595;28;20063;-78
2021/01/08 07:04:22;;;;;;;4.38;1.70;;;;;;;19.60;39.61;99724.66;5047503;28;20448;-80
2021/01/08 07:06:48;;;;;;;4.88;2.50;;;;;;;19.61;39.58;99726.41;5046151;28;20108;-78
2021/01/08 07:09:15;;;;;;;6.00;2.40;;;;;;;19.61;39.76;99735.16;5048912;28;20037;-78
2021/01/08 07:11:40;;;;;;;5.28;2.72;;;;;;;19.62;39.39;99730.75;5048464;28;20203;-74
2021/01/08 07:14:06;;;;;;;9.60;2.35;;;;;;;19.63;39.78;99729.84;5049454;28;20264;-73
2021/01/08 07:16:32;;;;;;;11.18;2.30;;;;;;;19.64;39.59;99736.84;5046282;28;20047;-76
2021/01/08 07:19:05;;;;;;;6.20;2.45;;;;;;;19.61;39.87;99731.66;5047435;28;20040;-74
2021/01/08 07:21:32;;;;;;;5.25;2.20;;;;;;;19.63;39.74;99735.97;5047797;28;20047;-79
2021/01/08 07:23:59;;;;;;;7.68;2.92;;;;;;;19.62;39.78;99736.84;5048436;28;20029;-75
2021/01/08 07:26:28;;;;;;;5.90;2.88;;;;;;;19.61;39.93;99745.69;5046629;28;20029;-78
2021/01/08 07:28:55;;;;;;;8.30;2.90;;;;;;;19.62;39.93;99751.78;5049266;28;20106;-76
2021/01/08 07:31:30;;;;;;;3.67;2.17;;;;;;;19.59;39.90;99746.59;5049484;28;20052;-73
2021/01/08 07:33:57;;;;;;;12.43;3.10;;;;;;;19.58;39.92;99747.50;5049371;28;20033;-74
2021/01/08 07:36:25;;;;;;;6.38;2.55;;;;;;;19.59;39.60;99754.47;5047557;28;20091;-74
2021/01/08 07:38:51;;;;;;;6.25;2.53;;;;;;;19.60;39.66;99757.09;5049436;28;20277;-76
2021/01/08 07:41:33;;;;;;;11.35;3.75;;;;;;;19.61;39.62;99755.31;5045898;28;20737;-75
2021/01/08 07:43:58;;;;;;;7.18;2.60;;;;;;;19.63;39.71;99767.50;5048181;28;20067;-74
2021/01/08 07:46:29;;;;;;;5.75;2.40;;;;;;;19.62;39.60;99762.28;5064257;28;20025;-77
2021/01/08 07:48:56;;;;;;;5.28;2.20;;;;;;;19.61;39.58;99769.34;5048886;28;20037;-76
2021/01/08 07:51:23;;;;;;;4.78;2.63;;;;;;;19.58;39.57;99774.66;5047236;28;20029;-74
2021/01/08 07:53:55;;;;;;;5.07;2.75;;;;;;;19.58;39.56;99774.66;5038342;28;20048;-73
2021/01/08 07:56:22;;;;;;;11.55;2.78;;;;;;;19.59;39.72;99775.50;5046727;28;20063;-73
2021/01/08 07:59:07;;;;;;;6.78;2.65;;;;;;;19.57;39.28;99788.69;5049932;28;20041;-75
2021/01/08 08:01:35;;;;;;;6.10;2.80;;;;;;;19.57;39.63;99791.34;5053259;28;20060;-75
2021/01/08 08:04:01;;;;;;;10.15;2.88;;;;;;;19.56;39.62;99786.09;5053193;28;20048;-74
2021/01/08 08:06:32;;;;;;;5.72;2.53;;;;;;;19.56;39.59;99788.72;5053369;28;20035;-77
2021/01/08 08:08:59;;;;;;;8.18;3.17;;;;;;;19.56;39.50;99793.97;5052939;28;20028;-74
2021/01/08 08:11:28;;;;;;;6.35;2.33;;;;;;;19.55;39.56;99801.00;5053159;28;20049;-78
2021/01/08 08:13:54;;;;;;;6.53;2.72;;;;;;;19.54;39.66;99794.03;5051811;28;20043;-79
2021/01/08 08:16:36;;;;;;;8.65;3.45;;;;;;;19.54;39.55;99798.44;5053451;28;20820;-73
2021/01/08 08:19:04;;;;;;;6.82;2.53;;;;;;;19.54;39.51;99794.03;5053195;28;20393;-79
2021/01/08 08:21:30;;;;;;;5.63;2.30;;;;;;;19.55;39.62;99802.75;5052321;28;20113;-72
2021/01/08 08:23:57;;;;;;;4.82;2.50;;;;;;;19.54;39.61;99799.28;5051061;28;20516;-74
2021/01/08 08:26:24;;;;;;;7.68;2.65;;;;;;;19.55;39.46;99808.91;5053321;28;20029;-75
2021/01/08 08:29:05;;;;;;;8.65;2.65;;;;;;;19.56;39.33;99815.00;5052138;28;20041;-77
2021/01/08 08:31:33;;;;;;;6.90;2.85;;;;;;;19.56;39.54;99818.50;5051478;28;20048;-77
2021/01/08 08:33:59;;;;;;;4.88;2.30;;;;;;;19.56;39.57;99817.63;5052566;28;20025;-73
2021/01/08 08:36:25;;;;;;;8.65;2.70;;;;;;;19.56;39.43;99823.78;5052555;28;20031;-76
2021/01/08 08:39:14;;;;;;;6.18;2.45;;;;;;;19.57;39.49;99819.38;5052308;28;20036;-72
2021/01/08 08:41:45;;;;;;;4.40;2.50;;;;;;;19.57;39.41;99827.25;5033399;28;20047;-76
2021/01/08 08:44:18;;;;;;;4.15;2.38;;;;;;;19.58;39.42;99828.97;5046553;28;20033;-72
2021/01/08 08:46:57;;;;;;;5.95;2.40;;;;;;;19.58;39.21;99828.97;5037196;28;20041;-73
2021/01/08 08:49:36;;;;;;;5.88;2.40;;;;;;;19.60;39.40;99835.06;5035583;28;20045;-75
2021/01/08 08:52:02;;;;;;;5.03;3.00;;;;;;;19.59;39.39;99834.22;5032498;28;20120;-73
2021/01/08 08:54:27;;;;;;;7.15;2.80;;;;;;;19.60;39.12;99830.69;5032099;28;20561;-76
2021/01/08 08:56:55;;;;;;;7.20;2.30;;;;;;;19.58;39.24;99839.50;5040240;28;20132;-80
2021/01/08 08:59:36;;;;;;;3.65;2.38;;;;;;;19.58;39.14;99839.50;5052280;28;20049;-75
2021/01/08 09:02:02;;;;;;;5.55;3.08;;;;;;;19.58;39.35;99839.50;5052592;28;20124;-72
2021/01/08 09:04:27;;;;;;;7.60;2.92;;;;;;;19.56;39.12;99846.53;5051698;28;20100;-73
2021/01/08 09:06:56;;;;;;;5.45;3.05;;;;;;;19.54;39.24;99845.75;5045707;28;20033;-72
2021/01/08 09:09:25;;;;;;;7.78;3.60;;;;;;;19.55;38.86;99850.94;5038329;28;20037;-73
2021/01/08 09:12:14;;;;;;;6.15;2.72;;;;;;;19.55;39.11;99845.69;5033683;28;20042;-73
2021/01/08 09:14:42;;;;;;;5.20;2.67;;;;;;;19.55;38.99;99842.19;5048855;28;20047;-76
2021/01/08 09:17:16;;;;;;;4.40;2.38;;;;;;;19.54;38.78;99843.13;5047495;28;20039;-72
2021/01/08 09:19:54;;;;;;;3.85;2.38;;;;;;;19.55;38.83;99848.31;5051761;28;20098;-75
2021/01/08 09:22:20;;;;;;;4.28;2.72;;;;;;;19.55;38.96;99845.69;5051872;28;20033;-75
2021/01/08 09:24:48;;;;;;;3.65;2.40;;;;;;;19.58;38.81;99850.00;5051920;28;20064;-74
2021/01/08 09:27:15;;;;;;;6.28;3.05;;;;;;;19.57;39.11;99853.53;5051724;28;20029;-73
2021/01/08 09:29:42;;;;;;;7.70;3.20;;;;;;;19.56;38.91;99851.81;5052179;28;20716;-75
2021/01/08 09:32:08;;;;;;;4.82;2.88;;;;;;;19.55;38.86;99860.59;5050766;28;20083;-77
2021/01/08 09:34:35;;;;;;;4.57;2.70;;;;;;;19.54;38.58;99857.09;5051460;28;20433;-74
2021/01/08 09:37:12;;;;;;;5.50;3.17;;;;;;;19.52;38.49;99863.31;5051655;28;20029;-73
2021/01/08 09:39:39;;;;;;;5.25;3.30;;;;;;;19.54;38.59;99869.41;5046924;28;20045;-75
2021/01/08 09:42:05;;;;;;;5.35;3.08;;;;;;;19.54;38.52;99870.25;5051218;28;20044;-75
2021/01/08 09:44:36;;;;;;;6.13;3.00;;;;;;;19.53;38.54;99878.19;5051575;28;20033;-72
2021/01/08 09:47:09;;;;;;;4.75;3.05;;;;;;;19.52;38.47;99873.81;5033146;28;20540;-75
2021/01/08 09:49:44;;;;;;;6.80;3.05;;;;;;;19.53;38.26;99873.78;5030154;28;20091;-73
2021/01/08 09:52:11;;;;;;;5.07;3.22;;;;;;;19.53;38.38;99881.66;5031218;28;20041;-76
2021/01/08 09:54:47;;;;;;;4.22;2.80;;;;;;;19.54;38.14;99877.28;5030057;28;20145;-75
2021/01/08 09:57:27;;;;;;;5.38;3.30;;;;;;;19.55;38.34;99881.59;5031482;28;20457;-76
2021/01/08 09:59:56;;;;;;;7.78;3.30;;;;;;;19.55;38.19;99887.75;5030494;28;20037;-73
2021/01/08 10:02:42;;;;;;;4.70;3.10;;;;;;;19.57;38.06;99887.69;5033236;28;20040;-74
2021/01/08 10:05:24;;;;;;;4.25;3.03;;;;;;;19.57;38.26;99899.09;5051261;28;20068;-72
2021/01/08 10:07:50;;;;;;;6.20;3.15;;;;;;;19.57;38.30;99885.06;5049905;28;20443;-75
2021/01/08 10:10:25;;;;;;;6.45;3.55;;;;;;;19.58;38.28;99892.06;5037529;28;20436;-74
2021/01/08 10:12:52;;;;;;;5.93;3.10;;;;;;;19.58;38.24;99892.06;5051280;28;20055;-76
2021/01/08 10:15:19;;;;;;;5.95;3.00;;;;;;;19.59;38.09;99891.16;5049991;28;20037;-74
2021/01/08 10:17:48;;;;;;;5.40;3.42;;;;;;;19.59;38.12;99888.53;5050920;28;20032;-73
2021/01/08 10:20:19;;;;;;;6.03;3.33;;;;;;;19.60;38.27;99888.50;5050389;28;20517;-74
2021/01/08 10:22:53;;;;;;;5.43;2.97;;;;;;;19.60;38.22;99892.88;5046918;28;20052;-75
2021/01/08 10:25:27;;;;;;;5.07;2.95;;;;;;;19.61;38.29;99887.63;5050565;28;20371;-76
2021/01/08 10:27:53;;;;;;;9.57;4.32;;;;;;;19.59;38.04;99899.94;5030926;28;20469;-74
2021/01/08 10:30:19;;;;;;;5.90;3.22;;;;;;;19.58;38.11;99898.19;5032928;28;20037;-76
2021/01/08 10:32:50;;;;;;;7.97;3.72;;;;;;;19.57;38.00;99890.31;5036015;28;20041;-73
2021/01/08 10:35:19;;;;;;;6.78;3.75;;;;;;;19.55;37.91;99903.50;5049831;28;20041;-78
2021/01/08 10:37:47;;;;;;;6.95;4.50;;;;;;;19.55;37.68;99897.38;5038987;28;20030;-72
2021/01/08 10:40:13;;;;;;;6.53;4.28;;;;;;;19.52;37.71;99894.84;5031038;28;20026;-76
2021/01/08 10:42:39;;;;;;;6.15;3.83;;;;;;;19.52;37.81;99887.81;5034551;28;20108;-74
2021/01/08 10:45:05;;;;;;;7.05;4.35;;;;;;;19.53;37.79;99896.56;5030245;28;20549;-74
2021/01/08 10:47:30;;;;;;;10.00;4.50;;;;;;;19.52;38.04;99897.47;5030530;28;20709;-74
2021/01/08 10:49:56;;;;;;;6.88;4.05;;;;;;;19.51;37.83;99903.63;5030556;28;20080;-74
2021/01/08 10:52:22;;;;;;;6.07;3.92;;;;;;;19.50;37.71;99907.16;5028929;28;20029;-75
2021/01/08 10:54:47;;;;;;;7.40;4.35;;;;;;;19.48;37.59;99901.91;5030950;28;20117;-74
2021/01/08 10:57:12;;;;;;;5.70;4.18;;;;;;;19.48;37.72;99896.66;5034611;28;20047;-73
2021/01/08 10:59:38;;;;;;;6.40;4.45;;;;;;;19.47;37.68;99901.06;5050133;28;20036;-73
2021/01/08 11:02:04;;;;;;;5.70;3.50;;;;;;;19.47;37.65;99894.94;5050179;28;20037;-74
2021/01/08 11:04:29;;;;;;;8.13;4.30;;;;;;;19.46;37.65;99894.06;5049416;28;20037;-75
2021/01/08 11:06:56;;;;;;;7.28;4.00;;;;;;;19.45;37.33;99900.22;5048774;28;20106;-73
2021/01/08 11:09:22;;;;;;;6.85;4.15;;;;;;;19.45;37.53;99894.97;5037647;28;20045;-77
2021/01/08 11:11:47;;;;;;;7.85;4.13;;;;;;;19.44;37.24;99901.13;5029286;28;20029;-75
2021/01/08 11:14:13;;;;;;;5.93;3.55;;;;;;;19.45;37.69;99900.22;5029856;28;20045;-74
2021/01/08 11:16:38;;;;;;;5.25;3.92;;;;;;;19.45;37.24;99897.59;5032713;28;20042;-72
2021/01/08 11:19:04;;;;;;;7.75;4.43;;;;;;;19.45;37.45;99897.59;5036422;28;20021;-76
2021/01/08 11:21:29;;;;;;;6.70;4.30;;;;;;;19.45;37.37;99891.50;5052898;28;20056;-76
2021/01/08 11:23:54;;;;;;;5.85;4.13;;;;;;;19.47;37.44;99890.56;5050815;28;20049;-73
2021/01/08 11:26:26;;;;;;;7.45;4.40;;;;;;;19.44;37.28;99895.88;5045786;28;20033;-73
2021/01/08 11:28:53;;;;;;;6.13;4.18;;;;;;;19.46;37.37;99882.72;5033082;28;20065;-78
2021/01/08 11:31:19;;;;;;;9.23;4.60;;;;;;;19.48;37.25;99892.28;5046519;28;20124;-75
2021/01/08 11:33:46;;;;;;;7.32;4.10;;;;;;;19.49;37.11;99890.50;5049461;28;20545;-74
2021/01/08 11:36:12;;;;;;;7.05;4.63;;;;;;;19.49;37.18;99893.13;5044742;28;20148;-77
2021/01/08 11:38:38;;;;;;;7.45;5.00;;;;;;;19.48;37.12;99892.28;5051007;28;20037;-75